sensor_id;sensor_type;location;lat;lon;timestamp;P1;durP1;ratioP1;P2;durP2;ratioP2
69369;SDS011;56530;42.640;23.372;2023-01-19T00:01:52;32.33;;;5.70;;
69369;SDS011;56530;42.640;23.372;2023-01-19T00:04:18;26.88;;;4.40;;
69369;SDS011;56530;42.640;23.372;2023-01-19T00:06:43;34.33;;;6.70;;
69369;SDS011;56530;42.640;23.372;2023-01-19T00:09:08;37.38;;;5.85;;
69369;SDS011;56530;42.640;23.372;2023-01-19T00:11:34;32.70;;;5.43;;
69369;SDS011;56530;42.640;23.372;2023-01-19T00:13:59;32.67;;;5.95;;
69369;SDS011;56530;42.640;23.372;2023-01-19T00:16:25;30.88;;;5.15;;
69369;SDS011;56530;42.640;23.372;2023-01-19T00:18:50;23.33;;;5.25;;
69369;SDS011;56530;42.640;23.372;2023-01-19T00:21:16;26.40;;;5.78;;
69369;SDS011;56530;42.640;23.372;2023-01-19T00:23:42;24.23;;;4.57;;
69369;SDS011;56530;42.640;23.372;2023-01-19T00:26:11;23.23;;;5.57;;
69369;SDS011;56530;42.640;23.372;2023-01-19T00:28:37;23.70;;;6.95;;
69369;SDS011;56530;42.640;23.372;2023-01-19T00:31:03;22.92;;;4.00;;
69369;SDS011;56530;42.640;23.372;2023-01-19T00:33:28;31.58;;;6.35;;
69369;SDS011;56530;42.640;23.372;2023-01-19T00:35:53;33.58;;;5.93;;
69369;SDS011;56530;42.640;23.372;2023-01-19T00:38:19;24.25;;;5.78;;
69369;SDS011;56530;42.640;23.372;2023-01-19T00:40:44;23.48;;;4.40;;
69369;SDS011;56530;42.640;23.372;2023-01-19T00:43:10;21.45;;;5.22;;
69369;SDS011;56530;42.640;23.372;2023-01-19T00:45:35;28.58;;;5.43;;
69369;SDS011;56530;42.640;23.372;2023-01-19T00:48:00;33.15;;;5.65;;
69369;SDS011;56530;42.640;23.372;2023-01-19T00:50:26;27.92;;;5.22;;
69369;SDS011;56530;42.640;23.372;2023-01-19T00:52:53;23.40;;;4.75;;
69369;SDS011;56530;42.640;23.372;2023-01-19T00:55:20;30.15;;;5.80;;
69369;SDS011;56530;42.640;23.372;2023-01-19T00:57:45;31.17;;;4.32;;
69369;SDS011;56530;42.640;23.372;2023-01-19T01:00:12;30.00;;;5.20;;
69369;SDS011;56530;42.640;23.372;2023-01-19T01:02:39;30.70;;;5.97;;
69369;SDS011;56530;42.640;23.372;2023-01-19T01:05:05;24.05;;;5.60;;
69369;SDS011;56530;42.640;23.372;2023-01-19T01:07:31;24.48;;;5.10;;
69369;SDS011;56530;42.640;23.372;2023-01-19T01:10:05;24.02;;;4.57;;
69369;SDS011;56530;42.640;23.372;2023-01-19T01:12:35;16.45;;;4.93;;
69369;SDS011;56530;42.640;23.372;2023-01-19T01:15:01;22.63;;;5.00;;
69369;SDS011;56530;42.640;23.372;2023-01-19T01:17:27;31.88;;;4.30;;
69369;SDS011;56530;42.640;23.372;2023-01-19T01:19:52;39.08;;;6.18;;
69369;SDS011;56530;42.640;23.372;2023-01-19T01:22:18;33.67;;;6.75;;
69369;SDS011;56530;42.640;23.372;2023-01-19T01:24:43;30.80;;;4.55;;
69369;SDS011;56530;42.640;23.372;2023-01-19T01:27:08;32.65;;;5.82;;
69369;SDS011;56530;42.640;23.372;2023-01-19T01:29:34;38.25;;;5.03;;
69369;SDS011;56530;42.640;23.372;2023-01-19T01:32:00;17.17;;;4.72;;
69369;SDS011;56530;42.640;23.372;2023-01-19T01:34:25;38.72;;;5.68;;
69369;SDS011;56530;42.640;23.372;2023-01-19T01:36:51;26.00;;;6.07;;
69369;SDS011;56530;42.640;23.372;2023-01-19T01:39:16;25.67;;;4.95;;
69369;SDS011;56530;42.640;23.372;2023-01-19T01:41:42;22.27;;;4.50;;
69369;SDS011;56530;42.640;23.372;2023-01-19T01:47:14;19.83;;;4.60;;
69369;SDS011;56530;42.640;23.372;2023-01-19T01:50:25;21.77;;;4.53;;
69369;SDS011;56530;42.640;23.372;2023-01-19T01:52:46;29.95;;;5.38;;
69369;SDS011;56530;42.640;23.372;2023-01-19T01:55:17;24.52;;;3.53;;
69369;SDS011;56530;42.640;23.372;2023-01-19T01:57:45;25.05;;;4.97;;
69369;SDS011;56530;42.640;23.372;2023-01-19T02:00:13;31.75;;;4.88;;
69369;SDS011;56530;42.640;23.372;2023-01-19T02:02:39;23.55;;;4.55;;
69369;SDS011;56530;42.640;23.372;2023-01-19T02:11:03;27.55;;;3.83;;
69369;SDS011;56530;42.640;23.372;2023-01-19T02:13:47;28.60;;;4.85;;
69369;SDS011;56530;42.640;23.372;2023-01-19T02:16:13;23.40;;;4.60;;
69369;SDS011;56530;42.640;23.372;2023-01-19T02:18:40;31.95;;;4.13;;
69369;SDS011;56530;42.640;23.372;2023-01-19T02:21:19;26.95;;;3.67;;
69369;SDS011;56530;42.640;23.372;2023-01-19T02:23:56;18.42;;;3.67;;
69369;SDS011;56530;42.640;23.372;2023-01-19T02:26:24;28.85;;;3.80;;
69369;SDS011;56530;42.640;23.372;2023-01-19T02:28:52;16.65;;;3.75;;
69369;SDS011;56530;42.640;23.372;2023-01-19T02:31:22;28.02;;;4.93;;
69369;SDS011;56530;42.640;23.372;2023-01-19T02:33:48;18.85;;;3.55;;
69369;SDS011;56530;42.640;23.372;2023-01-19T02:36:14;22.77;;;4.40;;
69369;SDS011;56530;42.640;23.372;2023-01-19T02:38:41;18.88;;;3.42;;
69369;SDS011;56530;42.640;23.372;2023-01-19T02:41:08;23.02;;;3.50;;
69369;SDS011;56530;42.640;23.372;2023-01-19T02:43:37;20.75;;;3.50;;
69369;SDS011;56530;42.640;23.372;2023-01-19T02:46:02;21.20;;;3.58;;
69369;SDS011;56530;42.640;23.372;2023-01-19T02:48:28;27.55;;;4.15;;
69369;SDS011;56530;42.640;23.372;2023-01-19T02:50:57;15.88;;;3.35;;
69369;SDS011;56530;42.640;23.372;2023-01-19T03:01:59;20.02;;;4.57;;
69369;SDS011;56530;42.640;23.372;2023-01-19T03:04:52;22.95;;;4.53;;
69369;SDS011;56530;42.640;23.372;2023-01-19T03:13:04;18.30;;;4.10;;
69369;SDS011;56530;42.640;23.372;2023-01-19T03:15:35;20.40;;;4.45;;
69369;SDS011;56530;42.640;23.372;2023-01-19T03:18:07;22.80;;;4.25;;
69369;SDS011;56530;42.640;23.372;2023-01-19T03:20:34;33.75;;;4.38;;
69369;SDS011;56530;42.640;23.372;2023-01-19T03:23:01;19.17;;;3.70;;
69369;SDS011;56530;42.640;23.372;2023-01-19T03:25:30;24.00;;;5.50;;
69369;SDS011;56530;42.640;23.372;2023-01-19T03:27:58;24.58;;;4.03;;
69369;SDS011;56530;42.640;23.372;2023-01-19T03:30:25;19.40;;;4.50;;
69369;SDS011;56530;42.640;23.372;2023-01-19T03:32:56;21.48;;;3.83;;
69369;SDS011;56530;42.640;23.372;2023-01-19T03:35:25;25.35;;;4.28;;
69369;SDS011;56530;42.640;23.372;2023-01-19T03:37:54;20.05;;;4.75;;
69369;SDS011;56530;42.640;23.372;2023-01-19T03:40:22;31.67;;;5.43;;
69369;SDS011;56530;42.640;23.372;2023-01-19T03:42:50;32.00;;;5.80;;
69369;SDS011;56530;42.640;23.372;2023-01-19T03:45:16;25.42;;;4.63;;
69369;SDS011;56530;42.640;23.372;2023-01-19T03:47:42;29.25;;;4.75;;
69369;SDS011;56530;42.640;23.372;2023-01-19T03:50:10;33.40;;;6.10;;
69369;SDS011;56530;42.640;23.372;2023-01-19T03:52:39;30.58;;;4.75;;
69369;SDS011;56530;42.640;23.372;2023-01-19T03:55:04;28.33;;;4.60;;
69369;SDS011;56530;42.640;23.372;2023-01-19T03:57:30;27.13;;;5.15;;
69369;SDS011;56530;42.640;23.372;2023-01-19T03:59:56;23.27;;;5.32;;
69369;SDS011;56530;42.640;23.372;2023-01-19T04:02:21;36.38;;;5.80;;
69369;SDS011;56530;42.640;23.372;2023-01-19T04:04:47;42.05;;;4.97;;
69369;SDS011;56530;42.640;23.372;2023-01-19T04:07:13;32.13;;;6.15;;
69369;SDS011;56530;42.640;23.372;2023-01-19T04:09:39;30.90;;;5.75;;
69369;SDS011;56530;42.640;23.372;2023-01-19T04:12:04;37.97;;;9.25;;
69369;SDS011;56530;42.640;23.372;2023-01-19T04:14:30;29.30;;;6.53;;
69369;SDS011;56530;42.640;23.372;2023-01-19T04:16:55;34.00;;;5.57;;
69369;SDS011;56530;42.640;23.372;2023-01-19T04:19:20;24.65;;;4.70;;
69369;SDS011;56530;42.640;23.372;2023-01-19T04:21:49;30.50;;;6.97;;
69369;SDS011;56530;42.640;23.372;2023-01-19T04:24:15;37.65;;;6.78;;
69369;SDS011;56530;42.640;23.372;2023-01-19T04:26:40;44.42;;;6.68;;
69369;SDS011;56530;42.640;23.372;2023-01-19T04:29:06;40.53;;;6.40;;
69369;SDS011;56530;42.640;23.372;2023-01-19T04:31:31;31.13;;;6.78;;
69369;SDS011;56530;42.640;23.372;2023-01-19T04:33:59;31.00;;;5.95;;
69369;SDS011;56530;42.640;23.372;2023-01-19T04:36:24;51.25;;;7.82;;
69369;SDS011;56530;42.640;23.372;2023-01-19T04:38:50;39.13;;;8.25;;
69369;SDS011;56530;42.640;23.372;2023-01-19T04:41:15;32.92;;;5.82;;
69369;SDS011;56530;42.640;23.372;2023-01-19T04:43:41;38.53;;;7.60;;
69369;SDS011;56530;42.640;23.372;2023-01-19T04:46:06;37.20;;;6.40;;
69369;SDS011;56530;42.640;23.372;2023-01-19T04:48:31;46.95;;;7.30;;
69369;SDS011;56530;42.640;23.372;2023-01-19T04:50:57;35.50;;;6.57;;
69369;SDS011;56530;42.640;23.372;2023-01-19T04:53:22;38.53;;;6.97;;
69369;SDS011;56530;42.640;23.372;2023-01-19T04:55:51;43.85;;;6.88;;
69369;SDS011;56530;42.640;23.372;2023-01-19T04:58:18;53.22;;;7.18;;
69369;SDS011;56530;42.640;23.372;2023-01-19T05:00:43;41.75;;;7.07;;
69369;SDS011;56530;42.640;23.372;2023-01-19T05:03:08;53.10;;;9.27;;
69369;SDS011;56530;42.640;23.372;2023-01-19T05:05:34;38.95;;;8.27;;
69369;SDS011;56530;42.640;23.372;2023-01-19T05:07:59;49.13;;;6.63;;
69369;SDS011;56530;42.640;23.372;2023-01-19T05:10:24;43.50;;;8.38;;
69369;SDS011;56530;42.640;23.372;2023-01-19T05:12:50;44.83;;;7.43;;
69369;SDS011;56530;42.640;23.372;2023-01-19T05:15:15;41.33;;;8.38;;
69369;SDS011;56530;42.640;23.372;2023-01-19T05:17:41;52.05;;;7.75;;
69369;SDS011;56530;42.640;23.372;2023-01-19T05:20:08;36.80;;;6.53;;
69369;SDS011;56530;42.640;23.372;2023-01-19T05:22:34;29.10;;;5.38;;
69369;SDS011;56530;42.640;23.372;2023-01-19T05:25:00;45.88;;;6.35;;
69369;SDS011;56530;42.640;23.372;2023-01-19T05:27:25;32.90;;;6.38;;
69369;SDS011;56530;42.640;23.372;2023-01-19T05:29:51;43.55;;;7.00;;
69369;SDS011;56530;42.640;23.372;2023-01-19T05:32:16;37.85;;;5.10;;
69369;SDS011;56530;42.640;23.372;2023-01-19T05:34:42;24.92;;;5.30;;
69369;SDS011;56530;42.640;23.372;2023-01-19T05:37:07;37.63;;;7.47;;
69369;SDS011;56530;42.640;23.372;2023-01-19T05:39:32;45.08;;;7.03;;
69369;SDS011;56530;42.640;23.372;2023-01-19T05:41:58;29.67;;;6.93;;
69369;SDS011;56530;42.640;23.372;2023-01-19T05:44:23;52.20;;;7.05;;
69369;SDS011;56530;42.640;23.372;2023-01-19T05:46:48;41.03;;;6.38;;
69369;SDS011;56530;42.640;23.372;2023-01-19T05:49:14;44.25;;;6.50;;
69369;SDS011;56530;42.640;23.372;2023-01-19T05:51:39;41.15;;;6.97;;
69369;SDS011;56530;42.640;23.372;2023-01-19T05:54:10;32.72;;;5.85;;
69369;SDS011;56530;42.640;23.372;2023-01-19T05:56:37;42.53;;;8.10;;
69369;SDS011;56530;42.640;23.372;2023-01-19T05:59:03;35.85;;;7.88;;
69369;SDS011;56530;42.640;23.372;2023-01-19T06:01:29;43.55;;;8.38;;
69369;SDS011;56530;42.640;23.372;2023-01-19T06:03:54;42.80;;;7.82;;
69369;SDS011;56530;42.640;23.372;2023-01-19T06:06:20;40.55;;;6.65;;
69369;SDS011;56530;42.640;23.372;2023-01-19T06:08:45;39.25;;;7.00;;
69369;SDS011;56530;42.640;23.372;2023-01-19T06:11:10;44.60;;;7.70;;
69369;SDS011;56530;42.640;23.372;2023-01-19T06:13:36;45.72;;;7.53;;
69369;SDS011;56530;42.640;23.372;2023-01-19T06:16:04;47.97;;;7.85;;
69369;SDS011;56530;42.640;23.372;2023-01-19T06:18:29;27.75;;;7.78;;
69369;SDS011;56530;42.640;23.372;2023-01-19T06:20:55;42.60;;;7.30;;
69369;SDS011;56530;42.640;23.372;2023-01-19T06:23:23;38.40;;;7.53;;
69369;SDS011;56530;42.640;23.372;2023-01-19T06:25:49;41.00;;;6.22;;
69369;SDS011;56530;42.640;23.372;2023-01-19T06:28:15;54.90;;;8.77;;
69369;SDS011;56530;42.640;23.372;2023-01-19T06:30:41;37.72;;;6.78;;
69369;SDS011;56530;42.640;23.372;2023-01-19T06:33:06;49.42;;;8.77;;
69369;SDS011;56530;42.640;23.372;2023-01-19T06:35:31;41.42;;;7.43;;
69369;SDS011;56530;42.640;23.372;2023-01-19T06:37:57;37.10;;;7.80;;
69369;SDS011;56530;42.640;23.372;2023-01-19T06:40:22;52.13;;;7.82;;
69369;SDS011;56530;42.640;23.372;2023-01-19T06:42:47;42.30;;;7.25;;
69369;SDS011;56530;42.640;23.372;2023-01-19T06:45:13;36.40;;;7.20;;
69369;SDS011;56530;42.640;23.372;2023-01-19T06:47:38;54.08;;;7.88;;
69369;SDS011;56530;42.640;23.372;2023-01-19T06:50:04;44.00;;;6.85;;
69369;SDS011;56530;42.640;23.372;2023-01-19T06:52:30;35.40;;;7.55;;
69369;SDS011;56530;42.640;23.372;2023-01-19T06:54:55;37.65;;;7.53;;
69369;SDS011;56530;42.640;23.372;2023-01-19T06:57:21;34.38;;;6.40;;
69369;SDS011;56530;42.640;23.372;2023-01-19T06:59:46;41.47;;;8.65;;
69369;SDS011;56530;42.640;23.372;2023-01-19T07:02:12;33.30;;;7.07;;
69369;SDS011;56530;42.640;23.372;2023-01-19T07:04:43;33.55;;;6.82;;
69369;SDS011;56530;42.640;23.372;2023-01-19T07:07:09;33.83;;;6.55;;
69369;SDS011;56530;42.640;23.372;2023-01-19T07:09:34;42.00;;;7.80;;
69369;SDS011;56530;42.640;23.372;2023-01-19T07:11:59;40.35;;;7.68;;
69369;SDS011;56530;42.640;23.372;2023-01-19T07:14:25;39.28;;;7.82;;
69369;SDS011;56530;42.640;23.372;2023-01-19T07:16:57;37.17;;;7.13;;
69369;SDS011;56530;42.640;23.372;2023-01-19T07:19:22;53.80;;;8.40;;
69369;SDS011;56530;42.640;23.372;2023-01-19T07:21:48;40.05;;;8.27;;
69369;SDS011;56530;42.640;23.372;2023-01-19T07:24:13;40.65;;;7.93;;
69369;SDS011;56530;42.640;23.372;2023-01-19T07:26:38;42.72;;;7.03;;
69369;SDS011;56530;42.640;23.372;2023-01-19T07:29:04;52.67;;;8.43;;
69369;SDS011;56530;42.640;23.372;2023-01-19T07:31:29;32.88;;;9.45;;
69369;SDS011;56530;42.640;23.372;2023-01-19T07:33:54;36.42;;;6.65;;
69369;SDS011;56530;42.640;23.372;2023-01-19T07:36:20;41.88;;;7.57;;
69369;SDS011;56530;42.640;23.372;2023-01-19T07:38:45;36.47;;;6.70;;
69369;SDS011;56530;42.640;23.372;2023-01-19T07:41:11;45.47;;;7.57;;
69369;SDS011;56530;42.640;23.372;2023-01-19T07:43:36;42.42;;;8.23;;
69369;SDS011;56530;42.640;23.372;2023-01-19T07:46:03;46.35;;;7.00;;
69369;SDS011;56530;42.640;23.372;2023-01-19T07:48:29;35.40;;;7.25;;
69369;SDS011;56530;42.640;23.372;2023-01-19T07:51:01;37.92;;;7.00;;
69369;SDS011;56530;42.640;23.372;2023-01-19T07:53:29;44.25;;;8.25;;
69369;SDS011;56530;42.640;23.372;2023-01-19T07:55:55;43.90;;;7.35;;
69369;SDS011;56530;42.640;23.372;2023-01-19T07:58:21;30.25;;;6.38;;
69369;SDS011;56530;42.640;23.372;2023-01-19T08:00:47;49.08;;;8.77;;
69369;SDS011;56530;42.640;23.372;2023-01-19T08:03:13;39.13;;;7.32;;
69369;SDS011;56530;42.640;23.372;2023-01-19T08:05:38;58.85;;;9.70;;
69369;SDS011;56530;42.640;23.372;2023-01-19T08:08:04;41.45;;;8.68;;
69369;SDS011;56530;42.640;23.372;2023-01-19T08:10:29;44.13;;;8.40;;
69369;SDS011;56530;42.640;23.372;2023-01-19T08:12:56;50.03;;;8.63;;
69369;SDS011;56530;42.640;23.372;2023-01-19T08:15:21;51.25;;;8.07;;
69369;SDS011;56530;42.640;23.372;2023-01-19T08:17:58;45.42;;;9.68;;
69369;SDS011;56530;42.640;23.372;2023-01-19T08:20:25;44.92;;;7.55;;
69369;SDS011;56530;42.640;23.372;2023-01-19T08:22:52;46.63;;;9.00;;
69369;SDS011;56530;42.640;23.372;2023-01-19T08:25:24;50.15;;;8.57;;
69369;SDS011;56530;42.640;23.372;2023-01-19T08:27:52;50.47;;;8.80;;
69369;SDS011;56530;42.640;23.372;2023-01-19T08:30:18;50.25;;;9.00;;
69369;SDS011;56530;42.640;23.372;2023-01-19T08:32:43;47.55;;;8.15;;
69369;SDS011;56530;42.640;23.372;2023-01-19T08:35:09;54.08;;;8.85;;
69369;SDS011;56530;42.640;23.372;2023-01-19T08:37:34;47.70;;;8.45;;
69369;SDS011;56530;42.640;23.372;2023-01-19T08:40:00;37.25;;;8.02;;
69369;SDS011;56530;42.640;23.372;2023-01-19T08:42:25;37.35;;;7.93;;
69369;SDS011;56530;42.640;23.372;2023-01-19T08:44:51;48.22;;;8.27;;
69369;SDS011;56530;42.640;23.372;2023-01-19T08:47:17;53.95;;;6.93;;
69369;SDS011;56530;42.640;23.372;2023-01-19T08:49:42;28.98;;;7.35;;
69369;SDS011;56530;42.640;23.372;2023-01-19T08:52:08;44.42;;;8.45;;
69369;SDS011;56530;42.640;23.372;2023-01-19T08:54:33;39.60;;;7.20;;
69369;SDS011;56530;42.640;23.372;2023-01-19T08:56:58;50.53;;;8.52;;
69369;SDS011;56530;42.640;23.372;2023-01-19T08:59:24;34.70;;;7.25;;
69369;SDS011;56530;42.640;23.372;2023-01-19T09:01:49;40.30;;;6.95;;
69369;SDS011;56530;42.640;23.372;2023-01-19T09:04:14;39.90;;;7.07;;
69369;SDS011;56530;42.640;23.372;2023-01-19T09:06:40;35.22;;;6.95;;
69369;SDS011;56530;42.640;23.372;2023-01-19T09:09:05;45.45;;;7.07;;
69369;SDS011;56530;42.640;23.372;2023-01-19T09:11:31;43.92;;;5.80;;
69369;SDS011;56530;42.640;23.372;2023-01-19T09:13:57;33.60;;;6.65;;
69369;SDS011;56530;42.640;23.372;2023-01-19T09:16:22;37.95;;;7.07;;
69369;SDS011;56530;42.640;23.372;2023-01-19T09:18:48;28.13;;;6.00;;
69369;SDS011;56530;42.640;23.372;2023-01-19T09:21:14;30.83;;;5.18;;
69369;SDS011;56530;42.640;23.372;2023-01-19T09:23:39;38.58;;;6.25;;
69369;SDS011;56530;42.640;23.372;2023-01-19T09:26:05;27.45;;;4.88;;
69369;SDS011;56530;42.640;23.372;2023-01-19T09:28:31;36.75;;;6.25;;
69369;SDS011;56530;42.640;23.372;2023-01-19T09:30:56;31.13;;;5.88;;
69369;SDS011;56530;42.640;23.372;2023-01-19T09:33:22;34.30;;;6.22;;
69369;SDS011;56530;42.640;23.372;2023-01-19T09:35:48;31.98;;;5.55;;
69369;SDS011;56530;42.640;23.372;2023-01-19T09:38:15;32.97;;;5.47;;
69369;SDS011;56530;42.640;23.372;2023-01-19T09:40:42;40.55;;;8.52;;
69369;SDS011;56530;42.640;23.372;2023-01-19T09:45:38;22.92;;;4.80;;
69369;SDS011;56530;42.640;23.372;2023-01-19T09:51:16;25.20;;;4.97;;
69369;SDS011;56530;42.640;23.372;2023-01-19T09:56:16;21.70;;;6.03;;
69369;SDS011;56530;42.640;23.372;2023-01-19T09:58:43;27.55;;;6.18;;
69369;SDS011;56530;42.640;23.372;2023-01-19T10:07:30;25.10;;;4.97;;
69369;SDS011;56530;42.640;23.372;2023-01-19T10:12:47;25.67;;;5.63;;
69369;SDS011;56530;42.640;23.372;2023-01-19T10:18:18;20.20;;;4.65;;
69369;SDS011;56530;42.640;23.372;2023-01-19T10:26:20;30.92;;;4.10;;
69369;SDS011;56530;42.640;23.372;2023-01-19T10:28:49;24.40;;;4.55;;
69369;SDS011;56530;42.640;23.372;2023-01-19T10:31:17;25.08;;;4.07;;
69369;SDS011;56530;42.640;23.372;2023-01-19T10:33:47;16.83;;;3.90;;
69369;SDS011;56530;42.640;23.372;2023-01-19T10:36:34;18.27;;;4.70;;
69369;SDS011;56530;42.640;23.372;2023-01-19T10:39:00;17.88;;;4.25;;
69369;SDS011;56530;42.640;23.372;2023-01-19T10:41:48;20.60;;;3.88;;
69369;SDS011;56530;42.640;23.372;2023-01-19T10:44:24;17.10;;;4.00;;
69369;SDS011;56530;42.640;23.372;2023-01-19T10:46:51;20.40;;;3.85;;
69369;SDS011;56530;42.640;23.372;2023-01-19T10:49:29;24.13;;;4.80;;
69369;SDS011;56530;42.640;23.372;2023-01-19T10:51:59;18.50;;;4.13;;
69369;SDS011;56530;42.640;23.372;2023-01-19T10:54:26;13.68;;;4.35;;
69369;SDS011;56530;42.640;23.372;2023-01-19T10:56:55;20.58;;;4.15;;
69369;SDS011;56530;42.640;23.372;2023-01-19T10:59:34;17.08;;;3.95;;
69369;SDS011;56530;42.640;23.372;2023-01-19T11:02:22;21.30;;;3.50;;
69369;SDS011;56530;42.640;23.372;2023-01-19T11:04:51;18.90;;;4.65;;
69369;SDS011;56530;42.640;23.372;2023-01-19T11:07:35;22.10;;;3.70;;
69369;SDS011;56530;42.640;23.372;2023-01-19T11:12:45;19.23;;;4.70;;
69369;SDS011;56530;42.640;23.372;2023-01-19T11:17:46;21.70;;;4.80;;
69369;SDS011;56530;42.640;23.372;2023-01-19T11:20:20;11.63;;;4.03;;
69369;SDS011;56530;42.640;23.372;2023-01-19T11:22:47;24.80;;;4.15;;
69369;SDS011;56530;42.640;23.372;2023-01-19T11:25:24;23.50;;;4.05;;
69369;SDS011;56530;42.640;23.372;2023-01-19T11:27:55;16.42;;;3.65;;
69369;SDS011;56530;42.640;23.372;2023-01-19T11:30:21;23.38;;;3.67;;
69369;SDS011;56530;42.640;23.372;2023-01-19T11:32:49;18.60;;;3.33;;
69369;SDS011;56530;42.640;23.372;2023-01-19T11:35:35;19.30;;;4.63;;
69369;SDS011;56530;42.640;23.372;2023-01-19T11:38:06;14.57;;;3.60;;
69369;SDS011;56530;42.640;23.372;2023-01-19T11:40:37;24.83;;;4.30;;
69369;SDS011;56530;42.640;23.372;2023-01-19T11:43:03;12.00;;;3.35;;
69369;SDS011;56530;42.640;23.372;2023-01-19T11:45:28;17.83;;;4.18;;
69369;SDS011;56530;42.640;23.372;2023-01-19T11:47:56;22.27;;;4.70;;
69369;SDS011;56530;42.640;23.372;2023-01-19T11:55:35;19.63;;;3.42;;
69369;SDS011;56530;42.640;23.372;2023-01-19T11:58:02;19.10;;;3.30;;
69369;SDS011;56530;42.640;23.372;2023-01-19T12:05:45;19.70;;;3.42;;
69369;SDS011;56530;42.640;23.372;2023-01-19T12:08:17;16.08;;;4.20;;
69369;SDS011;56530;42.640;23.372;2023-01-19T12:10:46;25.13;;;3.10;;
69369;SDS011;56530;42.640;23.372;2023-01-19T12:13:17;17.55;;;3.60;;
69369;SDS011;56530;42.640;23.372;2023-01-19T12:15:44;15.50;;;2.90;;
69369;SDS011;56530;42.640;23.372;2023-01-19T12:18:17;18.50;;;3.53;;
69369;SDS011;56530;42.640;23.372;2023-01-19T12:20:46;20.27;;;3.67;;
69369;SDS011;56530;42.640;23.372;2023-01-19T12:28:44;12.73;;;3.70;;
69369;SDS011;56530;42.640;23.372;2023-01-19T12:31:18;18.95;;;2.97;;
69369;SDS011;56530;42.640;23.372;2023-01-19T12:33:45;23.60;;;4.35;;
69369;SDS011;56530;42.640;23.372;2023-01-19T12:36:33;11.45;;;3.42;;
69369;SDS011;56530;42.640;23.372;2023-01-19T12:41:32;12.75;;;2.80;;
69369;SDS011;56530;42.640;23.372;2023-01-19T12:49:21;12.93;;;2.85;;
69369;SDS011;56530;42.640;23.372;2023-01-19T12:54:42;13.68;;;3.30;;
69369;SDS011;56530;42.640;23.372;2023-01-19T12:57:34;14.35;;;2.90;;
69369;SDS011;56530;42.640;23.372;2023-01-19T13:01:10;11.55;;;2.65;;
69369;SDS011;56530;42.640;23.372;2023-01-19T13:18:44;14.00;;;2.92;;
69369;SDS011;56530;42.640;23.372;2023-01-19T13:21:12;13.25;;;3.40;;
69369;SDS011;56530;42.640;23.372;2023-01-19T13:26:26;8.95;;;2.47;;
69369;SDS011;56530;42.640;23.372;2023-01-19T13:31:35;7.78;;;2.60;;
69369;SDS011;56530;42.640;23.372;2023-01-19T13:34:02;10.57;;;2.60;;
69369;SDS011;56530;42.640;23.372;2023-01-19T13:36:29;5.05;;;2.38;;
69369;SDS011;56530;42.640;23.372;2023-01-19T13:38:57;10.32;;;2.72;;
69369;SDS011;56530;42.640;23.372;2023-01-19T13:41:26;14.27;;;3.08;;
69369;SDS011;56530;42.640;23.372;2023-01-19T13:43:56;7.22;;;2.45;;
69369;SDS011;56530;42.640;23.372;2023-01-19T13:46:24;12.57;;;2.85;;
69369;SDS011;56530;42.640;23.372;2023-01-19T13:48:54;8.68;;;3.00;;
69369;SDS011;56530;42.640;23.372;2023-01-19T13:51:21;11.68;;;3.78;;
69369;SDS011;56530;42.640;23.372;2023-01-19T13:53:57;13.30;;;2.28;;
69369;SDS011;56530;42.640;23.372;2023-01-19T13:56:26;12.77;;;3.28;;
69369;SDS011;56530;42.640;23.372;2023-01-19T13:59:11;9.80;;;2.90;;
69369;SDS011;56530;42.640;23.372;2023-01-19T14:01:41;7.10;;;2.60;;
69369;SDS011;56530;42.640;23.372;2023-01-19T14:04:42;5.32;;;2.55;;
69369;SDS011;56530;42.640;23.372;2023-01-19T14:07:11;7.90;;;2.45;;
69369;SDS011;56530;42.640;23.372;2023-01-19T14:09:37;10.75;;;2.88;;
69369;SDS011;56530;42.640;23.372;2023-01-19T14:14:36;8.13;;;3.00;;
69369;SDS011;56530;42.640;23.372;2023-01-19T14:17:02;9.20;;;2.97;;
69369;SDS011;56530;42.640;23.372;2023-01-19T14:19:28;7.15;;;2.58;;
69369;SDS011;56530;42.640;23.372;2023-01-19T14:21:57;10.90;;;2.28;;
69369;SDS011;56530;42.640;23.372;2023-01-19T14:24:27;13.38;;;2.50;;
69369;SDS011;56530;42.640;23.372;2023-01-19T14:29:36;6.63;;;2.42;;
69369;SDS011;56530;42.640;23.372;2023-01-19T14:32:17;14.93;;;2.95;;
69369;SDS011;56530;42.640;23.372;2023-01-19T14:39:57;18.23;;;12.48;;
69369;SDS011;56530;42.640;23.372;2023-01-19T14:42:29;9.93;;;2.63;;
69369;SDS011;56530;42.640;23.372;2023-01-19T14:44:57;20.63;;;10.38;;
69369;SDS011;56530;42.640;23.372;2023-01-19T14:47:34;16.80;;;6.15;;
69369;SDS011;56530;42.640;23.372;2023-01-19T14:50:07;19.23;;;13.40;;
69369;SDS011;56530;42.640;23.372;2023-01-19T14:52:49;8.90;;;2.75;;
69369;SDS011;56530;42.640;23.372;2023-01-19T14:55:37;16.27;;;2.90;;
69369;SDS011;56530;42.640;23.372;2023-01-19T14:58:11;16.95;;;7.72;;
69369;SDS011;56530;42.640;23.372;2023-01-19T15:00:41;23.75;;;10.93;;
69369;SDS011;56530;42.640;23.372;2023-01-19T15:03:07;10.82;;;5.15;;
69369;SDS011;56530;42.640;23.372;2023-01-19T15:05:36;6.05;;;2.78;;
69369;SDS011;56530;42.640;23.372;2023-01-19T15:08:02;6.80;;;2.70;;
69369;SDS011;56530;42.640;23.372;2023-01-19T15:10:28;9.25;;;2.53;;
69369;SDS011;56530;42.640;23.372;2023-01-19T15:12:54;12.07;;;2.67;;
69369;SDS011;56530;42.640;23.372;2023-01-19T15:15:23;9.02;;;2.70;;
69369;SDS011;56530;42.640;23.372;2023-01-19T15:17:52;7.50;;;2.42;;
69369;SDS011;56530;42.640;23.372;2023-01-19T15:20:18;8.20;;;2.78;;
69369;SDS011;56530;42.640;23.372;2023-01-19T15:22:44;9.80;;;2.45;;
69369;SDS011;56530;42.640;23.372;2023-01-19T15:25:13;13.45;;;3.97;;
69369;SDS011;56530;42.640;23.372;2023-01-19T15:27:43;10.88;;;2.67;;
69369;SDS011;56530;42.640;23.372;2023-01-19T15:32:57;14.80;;;3.92;;
69369;SDS011;56530;42.640;23.372;2023-01-19T15:35:23;7.60;;;3.13;;
69369;SDS011;56530;42.640;23.372;2023-01-19T15:37:50;12.48;;;2.88;;
69369;SDS011;56530;42.640;23.372;2023-01-19T15:40:16;9.48;;;2.55;;
69369;SDS011;56530;42.640;23.372;2023-01-19T15:42:42;11.13;;;3.50;;
69369;SDS011;56530;42.640;23.372;2023-01-19T15:47:51;6.50;;;2.28;;
69369;SDS011;56530;42.640;23.372;2023-01-19T15:50:17;6.65;;;2.30;;
69369;SDS011;56530;42.640;23.372;2023-01-19T15:52:44;11.10;;;2.75;;
69369;SDS011;56530;42.640;23.372;2023-01-19T15:55:09;14.90;;;2.83;;
69369;SDS011;56530;42.640;23.372;2023-01-19T15:57:37;6.95;;;2.35;;
69369;SDS011;56530;42.640;23.372;2023-01-19T16:00:03;6.75;;;2.08;;
69369;SDS011;56530;42.640;23.372;2023-01-19T16:02:29;4.10;;;2.35;;
69369;SDS011;56530;42.640;23.372;2023-01-19T16:04:54;6.45;;;2.50;;
69369;SDS011;56530;42.640;23.372;2023-01-19T16:07:20;10.90;;;2.90;;
69369;SDS011;56530;42.640;23.372;2023-01-19T16:09:45;6.10;;;2.78;;
69369;SDS011;56530;42.640;23.372;2023-01-19T16:12:10;7.85;;;3.15;;
69369;SDS011;56530;42.640;23.372;2023-01-19T16:14:36;13.48;;;8.30;;
69369;SDS011;56530;42.640;23.372;2023-01-19T16:17:01;7.25;;;2.70;;
69369;SDS011;56530;42.640;23.372;2023-01-19T16:19:26;10.57;;;2.95;;
69369;SDS011;56530;42.640;23.372;2023-01-19T16:21:52;28.10;;;18.85;;
69369;SDS011;56530;42.640;23.372;2023-01-19T16:24:17;21.85;;;14.02;;
69369;SDS011;56530;42.640;23.372;2023-01-19T16:26:42;6.63;;;2.20;;